Time;durP1;ratioP1;P1;durP2;ratioP2;P2;SDS_P1;SDS_P2;PMS_P1;PMS_P2;Temp;Humidity;BMP_temperature;BMP_pressure;BME280_temperature;BME280_humidity;BME280_pressure;Samples;Min_cycle;Max_cycle;Signal;HPM_P1;HPM_P2
2023/10/02 00:00:33;;;;;;;5.63;3.43;;;15.00;1.00;;;;;;8327377;28;20205;-80
2023/10/02 00:04:34;;;;;;;4.67;3.40;;;14.90;1.00;;;;;;8342153;28;20185;-80
2023/10/02 00:08:42;;;;;;;4.63;3.13;;;14.90;1.00;;;;;;8320502;28;20225;-80
2023/10/02 00:12:58;;;;;;;5.37;3.10;;;15.00;1.00;;;;;;8344347;28;20278;-80
2023/10/02 00:16:59;;;;;;;5.57;3.30;;;15.00;1.00;;;;;;8328246;28;20256;-80
2023/10/02 00:21:19;;;;;;;5.07;3.10;;;15.00;1.00;;;;;;8342715;28;20339;-79
2023/10/02 00:25:22;;;;;;;4.33;3.13;;;14.90;1.00;;;;;;8327233;28;20617;-80
2023/10/02 00:29:23;;;;;;;6.57;3.20;;;14.90;1.00;;;;;;8343457;28;20210;-80
2023/10/02 00:33:27;;;;;;;4.97;3.13;;;15.00;1.00;;;;;;8340521;28;20200;-79
2023/10/02 00:37:47;;;;;;;5.43;3.13;;;15.00;1.00;;;;;;8342862;28;20227;-80
2023/10/02 00:42:15;;;;;;;4.90;3.03;;;15.00;1.00;;;;;;8346654;28;20212;-79
2023/10/02 00:46:23;;;;;;;5.23;3.07;;;15.00;1.00;;;;;;8344280;28;20194;-80
2023/10/02 00:50:24;;;;;;;4.23;3.10;;;15.00;1.00;;;;;;8324790;28;20224;-80
2023/10/02 00:54:27;;;;;;;4.90;3.20;;;15.10;1.00;;;;;;8330948;28;20188;-79
2023/10/02 00:58:28;;;;;;;4.33;3.13;;;15.10;1.00;;;;;;8320681;28;20229;-80
2023/10/02 01:02:28;;;;;;;6.63;3.90;;;15.20;1.00;;;;;;8323214;28;20193;-79
2023/10/02 01:06:33;;;;;;;6.23;3.50;;;15.20;1.00;;;;;;8325294;28;20190;-80
2023/10/02 01:10:40;;;;;;;4.70;2.77;;;15.30;1.00;;;;;;8324984;28;20185;-80
2023/10/02 01:15:09;;;;;;;6.97;3.57;;;15.30;1.00;;;;;;8322450;28;20182;-79
2023/10/02 01:19:06;;;;;;;4.90;3.40;;;15.40;1.00;;;;;;8340911;28;20279;-80
2023/10/02 01:23:16;;;;;;;6.37;3.20;;;15.40;1.00;;;;;;8324798;28;20213;-80
2023/10/02 01:27:22;;;;;;;4.10;3.30;;;15.40;1.00;;;;;;8342429;28;20252;-80
2023/10/02 01:31:35;;;;;;;5.13;3.30;;;15.40;1.00;;;;;;8341253;28;20185;-79
2023/10/02 01:35:49;;;;;;;5.67;3.20;;;15.30;1.00;;;;;;8327005;28;20204;-80
2023/10/02 01:39:53;;;;;;;5.70;3.30;;;15.30;1.00;;;;;;8342928;28;20209;-80
2023/10/02 01:43:59;;;;;;;5.23;3.10;;;15.40;1.00;;;;;;8326967;28;20300;-80
2023/10/02 01:48:02;;;;;;;4.40;3.27;;;15.40;1.00;;;;;;8319104;28;20262;-80
2023/10/02 01:52:07;;;;;;;5.70;2.97;;;15.40;1.00;;;;;;8324640;28;20265;-80
2023/10/02 01:56:12;;;;;;;5.03;3.13;;;15.30;1.00;;;;;;8340962;28;20177;-81
2023/10/02 02:00:13;;;;;;;4.83;3.17;;;15.30;1.00;;;;;;8325262;28;20251;-79
2023/10/02 02:04:15;;;;;;;5.03;3.20;;;15.10;1.00;;;;;;8324021;28;20265;-79
2023/10/02 02:08:22;;;;;;;5.23;2.90;;;14.90;1.00;;;;;;8323608;28;20210;-79
2023/10/02 02:12:24;;;;;;;4.63;3.10;;;14.70;1.00;;;;;;8324142;28;20178;-80
2023/10/02 02:16:33;;;;;;;5.10;3.27;;;14.50;1.00;;;;;;8340962;28;20630;-79
2023/10/02 02:24:57;;;;;;;5.57;3.60;;;14.10;1.00;;;;;;8341029;28;20205;-79
2023/10/02 02:29:01;;;;;;;5.10;3.43;;;13.90;1.10;;;;;;8338422;28;20307;-79
2023/10/02 02:33:02;;;;;;;5.03;3.60;;;13.70;25.80;;;;;;8325456;28;20190;-79
2023/10/02 02:37:06;;;;;;;4.67;3.43;;;13.50;57.30;;;;;;8339314;28;20184;-79
2023/10/02 02:41:07;;;;;;;6.13;3.77;;;13.40;95.90;;;;;;8328182;28;20224;-79
2023/10/02 02:45:24;;;;;;;5.40;3.60;;;13.20;99.90;;;;;;8324939;28;20190;-79
2023/10/02 02:49:25;;;;;;;5.83;3.63;;;13.10;99.90;;;;;;8327798;28;20621;-79
2023/10/02 02:53:30;;;;;;;5.67;3.30;;;13.00;99.90;;;;;;8347996;28;20194;-79
2023/10/02 02:57:38;;;;;;;4.33;3.37;;;12.80;99.90;;;;;;8328024;28;20181;-79
2023/10/02 03:01:40;;;;;;;6.63;3.73;;;12.80;99.90;;;;;;8350935;28;20206;-79
2023/10/02 03:05:41;;;;;;;5.27;3.33;;;12.70;99.90;;;;;;8348510;28;20190;-79
2023/10/02 03:09:42;;;;;;;5.03;3.30;;;12.60;99.90;;;;;;8331541;28;20351;-79
2023/10/02 03:13:43;;;;;;;4.63;3.20;;;12.60;99.90;;;;;;8330974;28;20182;-78
2023/10/02 03:17:51;;;;;;;5.57;3.50;;;12.60;99.90;;;;;;8333994;28;20206;-78
2023/10/02 03:22:01;;;;;;;5.10;3.23;;;12.60;99.90;;;;;;8346605;28;20214;-79
2023/10/02 03:26:07;;;;;;;5.43;3.67;;;12.70;99.90;;;;;;8327098;28;20193;-79
2023/10/02 03:30:35;;;;;;;4.63;3.53;;;12.80;99.90;;;;;;8326874;28;20277;-79
2023/10/02 03:34:35;;;;;;;4.57;3.40;;;12.80;99.90;;;;;;8346443;28;20190;-79
2023/10/02 03:38:41;;;;;;;7.10;4.13;;;12.90;99.90;;;;;;8348712;28;20196;-79
2023/10/02 03:42:43;;;;;;;6.63;4.23;;;12.80;99.90;;;;;;8332320;28;20205;-78
2023/10/02 03:46:43;;;;;;;8.73;4.43;;;12.80;99.90;;;;;;8332788;28;20217;-79
2023/10/02 03:50:44;;;;;;;5.70;4.10;;;12.80;99.90;;;;;;8330323;28;20201;-79
2023/10/02 03:54:46;;;;;;;6.13;3.50;;;12.80;99.90;;;;;;8332064;28;20185;-78
2023/10/02 03:58:53;;;;;;;6.00;3.53;;;12.80;99.90;;;;;;8332262;28;20201;-79
2023/10/02 04:02:56;;;;;;;5.57;4.07;;;12.80;99.90;;;;;;8325478;28;20185;-79
2023/10/02 04:06:58;;;;;;;5.70;3.90;;;12.80;99.90;;;;;;8345569;28;20216;-78
2023/10/02 04:11:03;;;;;;;8.83;4.03;;;12.80;99.90;;;;;;8342067;28;20181;-78
2023/10/02 04:15:11;;;;;;;5.23;3.77;;;12.80;99.90;;;;;;8331129;28;20205;-78
2023/10/02 04:19:15;;;;;;;6.60;3.73;;;12.80;99.90;;;;;;8331933;28;20185;-78
2023/10/02 04:23:21;;;;;;;5.27;3.00;;;12.80;99.90;;;;;;8330590;28;20296;-79
2023/10/02 04:28:00;;;;;;;6.27;3.30;;;12.70;99.90;;;;;;8330026;28;20318;-78
2023/10/02 04:36:31;;;;;;;6.53;3.70;;;12.80;99.90;;;;;;8213384;28;20196;-78
2023/10/02 04:40:44;;;;;;;4.30;3.30;;;12.80;99.90;;;;;;8215015;28;20189;-79
2023/10/02 04:44:48;;;;;;;5.80;3.70;;;12.80;99.90;;;;;;8301636;28;20217;-79
2023/10/02 04:48:54;;;;;;;6.03;3.37;;;12.80;99.90;;;;;;8328072;28;20205;-79
2023/10/02 04:53:19;;;;;;;6.73;3.90;;;12.80;99.90;;;;;;8349326;28;20182;-77
2023/10/02 04:57:24;;;;;;;5.33;3.20;;;12.90;99.90;;;;;;8345101;28;20205;-77
2023/10/02 05:01:34;;;;;;;6.23;3.57;;;12.90;99.90;;;;;;8345214;28;20232;-78
2023/10/02 05:05:48;;;;;;;4.60;3.40;;;13.00;99.90;;;;;;8328025;28;20289;-77
2023/10/02 05:09:53;;;;;;;6.03;3.20;;;13.10;99.90;;;;;;8341185;28;20218;-79
2023/10/02 05:17:58;;;;;;;5.77;3.63;;;13.30;99.90;;;;;;8342791;28;20181;-79
2023/10/02 05:22:00;;;;;;;7.17;5.17;;;13.40;99.90;;;;;;8324463;28;20295;-80
2023/10/02 05:26:04;;;;;;;12.30;8.00;;;13.50;99.90;;;;;;8323546;28;20186;-79
2023/10/02 05:30:12;;;;;;;29.10;14.50;;;13.60;99.90;;;;;;8339797;28;20213;-80
2023/10/02 05:34:22;;;;;;;19.33;10.60;;;13.90;99.90;;;;;;8328322;28;20194;-82
2023/10/02 05:38:22;;;;;;;13.43;9.63;;;14.10;99.90;;;;;;8341175;28;20194;-79
2023/10/02 05:42:24;;;;;;;9.03;6.80;;;14.10;99.90;;;;;;8343741;28;20189;-79
2023/10/02 05:46:54;;;;;;;6.50;4.97;;;14.10;75.20;;;;;;8327640;28;20270;-82
2023/10/02 05:50:52;;;;;;;5.80;4.33;;;14.00;72.10;;;;;;8344955;28;20189;-80
2023/10/02 05:54:53;;;;;;;6.20;3.87;;;13.90;82.30;;;;;;8341092;28;20197;-80
2023/10/02 05:58:55;;;;;;;5.83;3.83;;;13.80;97.50;;;;;;8327153;28;20201;-80
2023/10/02 06:02:59;;;;;;;5.77;3.30;;;13.90;99.90;;;;;;8327929;28;20181;-83
2023/10/02 06:07:03;;;;;;;5.57;4.30;;;13.90;99.90;;;;;;8325254;28;20205;-80
2023/10/02 06:19:45;;;;;;;5.17;3.17;;;14.60;92.90;;;;;;8340440;28;20324;-80
2023/10/02 06:23:46;;;;;;;5.27;3.33;;;15.00;50.20;;;;;;8327026;28;20193;-80
2023/10/02 06:27:47;;;;;;;6.17;4.20;;;15.40;4.30;;;;;;8327452;28;20304;-81
2023/10/02 06:31:58;;;;;;;8.20;4.53;;;16.00;1.00;;;;;;8347666;28;20182;-80
2023/10/02 06:36:05;;;;;;;6.10;4.10;;;16.40;1.00;;;;;;8313363;28;20194;-80
2023/10/02 06:40:16;;;;;;;6.73;4.30;;;16.90;1.00;;;;;;8348642;28;20185;-80
2023/10/02 06:44:18;;;;;;;7.50;4.37;;;17.00;1.00;;;;;;8333597;28;20532;-80
2023/10/02 06:48:20;;;;;;;8.50;4.33;;;17.10;1.00;;;;;;8330959;28;20213;-80
2023/10/02 06:52:24;;;;;;;10.00;4.90;;;17.10;1.00;;;;;;8329834;28;20231;-79
2023/10/02 06:56:27;;;;;;;9.30;4.97;;;17.20;1.00;;;;;;8330784;28;20186;-81
2023/10/02 07:00:54;;;;;;;8.53;4.53;;;17.20;1.00;;;;;;8330776;28;20194;-81
2023/10/02 07:04:50;;;;;;;8.40;4.47;;;17.30;1.00;;;;;;8345816;28;20200;-80
2023/10/02 07:13:22;;;;;;;8.03;4.60;;;17.40;1.00;;;;;;8333452;28;20266;-81
2023/10/02 07:17:23;;;;;;;6.80;4.70;;;17.60;1.00;;;;;;8345323;28;20478;-80
2023/10/02 07:21:25;;;;;;;8.00;4.43;;;17.70;1.00;;;;;;8329867;28;20213;-82
2023/10/02 07:25:26;;;;;;;8.03;4.87;;;17.90;1.00;;;;;;8324811;28;20190;-81
2023/10/02 07:29:37;;;;;;;8.83;4.73;;;18.00;1.00;;;;;;8329740;28;20589;-81
2023/10/02 07:33:39;;;;;;;10.30;5.53;;;18.20;1.00;;;;;;8330113;28;20324;-81
2023/10/02 07:37:40;;;;;;;7.33;4.80;;;18.30;1.00;;;;;;8330922;28;20193;-81
2023/10/02 07:41:43;;;;;;;7.37;4.77;;;18.50;1.00;;;;;;8346606;28;20209;-81
2023/10/02 07:46:01;;;;;;;6.97;4.63;;;18.70;1.00;;;;;;8346702;28;20292;-81
2023/10/02 07:50:03;;;;;;;9.37;4.90;;;18.80;1.00;;;;;;8329538;28;20227;-81
2023/10/02 07:54:06;;;;;;;7.93;5.10;;;19.00;1.00;;;;;;8330883;28;20235;-81
2023/10/02 07:58:08;;;;;;;8.87;4.33;;;19.10;1.00;;;;;;8326714;28;20197;-82
2023/10/02 08:02:21;;;;;;;7.93;4.40;;;19.30;1.00;;;;;;8345051;28;20435;-81
2023/10/02 08:10:47;;;;;;;6.87;4.53;;;19.70;1.00;;;;;;8347121;28;20213;-81
2023/10/02 08:14:47;;;;;;;8.30;4.90;;;19.80;1.00;;;;;;8349690;28;20185;-80
2023/10/02 08:19:05;;;;;;;9.00;5.10;;;19.90;1.00;;;;;;8332833;28;20183;-82
2023/10/02 08:23:22;;;;;;;7.53;5.07;;;20.10;1.00;;;;;;8330318;28;20197;-82
2023/10/02 08:27:23;;;;;;;7.20;4.87;;;20.20;1.00;;;;;;8332572;28;20296;-80
2023/10/02 08:31:27;;;;;;;9.27;5.70;;;20.40;1.00;;;;;;8350450;28;20181;-81
2023/10/02 08:35:28;;;;;;;9.10;4.83;;;20.40;1.00;;;;;;8329184;28;20205;-82
2023/10/02 08:39:29;;;;;;;9.70;5.53;;;20.50;1.00;;;;;;8328692;28;20186;-80
2023/10/02 08:43:43;;;;;;;9.57;5.90;;;20.50;1.00;;;;;;8324137;28;20213;-81
2023/10/02 08:47:47;;;;;;;8.53;4.53;;;20.70;1.00;;;;;;8324870;28;20237;-80
2023/10/02 08:51:49;;;;;;;10.67;5.57;;;20.90;1.00;;;;;;8345670;28;20177;-81
2023/10/02 08:56:21;;;;;;;7.53;5.20;;;21.00;1.00;;;;;;8331157;28;20186;-81
2023/10/02 09:00:27;;;;;;;8.37;5.30;;;21.00;1.00;;;;;;8346746;28;20293;-81
2023/10/02 09:04:29;;;;;;;9.90;5.23;;;21.10;1.00;;;;;;8326995;28;20182;-81
2023/10/02 09:09:12;;;;;;;10.10;5.43;;;21.20;1.00;;;;;;8329501;28;20559;-81
2023/10/02 09:13:18;;;;;;;11.97;5.20;;;21.20;1.00;;;;;;8345274;28;20193;-84
2023/10/02 09:17:20;;;;;;;9.30;5.33;;;21.30;1.00;;;;;;8341840;28;20220;-81
2023/10/02 09:21:22;;;;;;;9.23;5.30;;;21.50;1.00;;;;;;8327375;28;20209;-83
2023/10/02 09:25:27;;;;;;;10.17;5.60;;;21.50;1.00;;;;;;8329827;28;20221;-81
2023/10/02 09:29:31;;;;;;;9.97;4.97;;;21.60;1.00;;;;;;8328665;28;20644;-81
2023/10/02 09:33:33;;;;;;;8.57;5.13;;;21.80;1.00;;;;;;8328212;28;20280;-81
2023/10/02 09:37:35;;;;;;;8.17;5.47;;;22.10;1.00;;;;;;8329305;28;20257;-81
2023/10/02 09:41:36;;;;;;;8.73;5.40;;;22.30;1.00;;;;;;8347739;28;20385;-81
2023/10/02 09:45:46;;;;;;;10.67;5.43;;;22.40;1.00;;;;;;8344929;28;20207;-81
2023/10/02 09:50:26;;;;;;;8.57;4.63;;;22.40;1.00;;;;;;8327986;28;20244;-81
2023/10/02 09:54:34;;;;;;;7.60;5.03;;;22.50;1.00;;;;;;8329740;28;20190;-81
2023/10/02 09:58:47;;;;;;;7.90;5.20;;;22.80;1.00;;;;;;8331556;28;20965;-80
2023/10/02 10:03:22;;;;;;;9.37;5.50;;;22.90;1.00;;;;;;8334437;28;20190;-81
2023/10/02 10:07:46;;;;;;;10.83;6.47;;;22.90;1.00;;;;;;8352799;28;20304;-80
2023/10/02 10:16:19;;;;;;;9.80;5.93;;;22.90;1.00;;;;;;8353567;28;20196;-82
2023/10/02 10:20:22;;;;;;;9.57;5.80;;;23.00;1.00;;;;;;8350374;28;20212;-82
2023/10/02 10:24:56;;;;;;;8.57;5.37;;;23.00;1.00;;;;;;8352086;28;20209;-80
2023/10/02 10:28:57;;;;;;;8.70;5.87;;;23.20;1.00;;;;;;8329766;28;20214;-81
2023/10/02 10:37:41;;;;;;;9.60;5.73;;;23.50;1.00;;;;;;8349076;28;20225;-82
2023/10/02 10:41:57;;;;;;;8.70;5.90;;;23.50;1.00;;;;;;8329240;28;20218;-82
2023/10/02 10:45:58;;;;;;;10.77;5.80;;;23.60;1.00;;;;;;8347725;28;20181;-82
2023/10/02 10:50:14;;;;;;;10.37;6.23;;;23.70;1.00;;;;;;8324648;28;20209;-82
2023/10/02 10:54:30;;;;;;;9.18;6.10;;;23.90;1.00;;;;;;8330973;28;20190;-82
2023/10/02 10:58:33;;;;;;;11.00;6.43;;;24.00;1.00;;;;;;8327631;28;20198;-83
2023/10/02 11:02:36;;;;;;;8.95;6.00;;;24.00;1.00;;;;;;8330340;28;20194;-82
2023/10/02 11:06:41;;;;;;;8.63;5.82;;;24.20;1.00;;;;;;8344547;28;20190;-82
2023/10/02 11:10:42;;;;;;;9.23;5.60;;;24.50;1.00;;;;;;8327373;28;20183;-81
2023/10/02 11:14:49;;;;;;;8.05;5.20;;;24.50;1.00;;;;;;8328075;28;20609;-81
2023/10/02 11:19:21;;;;;;;11.98;6.28;;;24.80;1.00;;;;;;8325800;28;20186;-81
2023/10/02 11:23:38;;;;;;;10.18;5.72;;;24.70;1.00;;;;;;8343572;28;20301;-81
2023/10/02 11:27:41;;;;;;;10.13;5.70;;;24.90;1.00;;;;;;8327394;28;20217;-82
2023/10/02 11:31:45;;;;;;;10.35;5.63;;;24.90;1.00;;;;;;8345765;28;20186;-82
2023/10/02 11:35:46;;;;;;;8.68;5.45;;;24.60;1.00;;;;;;8342810;28;20301;-81
2023/10/02 11:39:50;;;;;;;6.65;5.22;;;24.50;1.00;;;;;;8330689;28;20186;-81
2023/10/02 11:43:54;;;;;;;9.80;5.50;;;24.80;1.00;;;;;;8343763;28;20231;-81
2023/10/02 11:47:55;;;;;;;8.75;5.53;;;25.00;1.00;;;;;;8325374;28;20279;-82
2023/10/02 11:52:00;;;;;;;12.10;5.30;;;25.30;1.00;;;;;;8325720;28;20186;-81
2023/10/02 11:56:01;;;;;;;8.70;5.55;;;25.30;1.00;;;;;;8347427;28;20182;-81
2023/10/02 12:00:08;;;;;;;12.88;5.53;;;25.20;1.00;;;;;;8345962;28;20225;-80
2023/10/02 12:04:09;;;;;;;11.00;5.20;;;25.30;1.00;;;;;;8327841;28;20182;-81
2023/10/02 12:08:11;;;;;;;8.95;5.35;;;25.20;1.00;;;;;;8329651;28;20206;-81
2023/10/02 12:12:12;;;;;;;8.52;5.05;;;25.00;1.00;;;;;;8326707;28;20182;-82
2023/10/02 12:16:12;;;;;;;10.02;4.97;;;25.30;1.00;;;;;;8329858;28;21470;-80
2023/10/02 12:20:16;;;;;;;9.02;4.65;;;25.60;1.00;;;;;;8331227;28;20263;-79
2023/10/02 12:24:17;;;;;;;5.97;4.20;;;25.90;1.00;;;;;;8322708;28;20179;-81
2023/10/02 12:28:18;;;;;;;8.85;4.60;;;26.20;1.00;;;;;;8328082;28;20225;-82
2023/10/02 12:32:22;;;;;;;5.53;3.80;;;26.30;1.00;;;;;;8328628;28;20186;-81
2023/10/02 12:36:23;;;;;;;7.00;4.55;;;26.20;1.00;;;;;;8327517;28;20271;-82
2023/10/02 12:40:31;;;;;;;7.03;4.90;;;26.00;1.00;;;;;;8326809;28;20186;-82
2023/10/02 12:44:40;;;;;;;7.47;4.15;;;25.80;1.00;;;;;;8327252;28;20190;-81
2023/10/02 12:48:46;;;;;;;8.32;4.38;;;25.80;1.00;;;;;;8344524;28;20220;-82
2023/10/02 12:52:47;;;;;;;8.48;4.38;;;25.90;1.00;;;;;;8327274;28;20178;-83
2023/10/02 12:56:50;;;;;;;6.80;4.20;;;26.10;1.00;;;;;;8344748;28;20193;-81
2023/10/02 13:00:51;;;;;;;8.38;3.50;;;26.20;1.00;;;;;;8342950;28;20205;-81
2023/10/02 13:04:52;;;;;;;7.80;3.97;;;26.30;1.00;;;;;;8343988;28;20181;-82
2023/10/02 13:09:36;;;;;;;7.47;3.60;;;26.40;1.00;;;;;;8326788;28;20205;-81
2023/10/02 13:13:20;;;;;;;6.57;3.95;;;26.40;1.00;;;;;;8335665;28;20200;-82
2023/10/02 13:17:21;;;;;;;7.35;4.10;;;26.40;1.00;;;;;;8326985;28;20261;-81
2023/10/02 13:21:22;;;;;;;5.50;3.75;;;26.40;1.00;;;;;;8324834;28;20205;-81
2023/10/02 13:25:26;;;;;;;6.57;3.63;;;26.40;1.00;;;;;;8326108;28;20283;-81
2023/10/02 13:29:27;;;;;;;5.60;3.60;;;26.50;1.00;;;;;;8325396;28;20198;-82
2023/10/02 13:33:28;;;;;;;8.57;3.60;;;26.60;1.00;;;;;;8325159;28;20277;-82
2023/10/02 13:37:29;;;;;;;6.68;3.75;;;26.60;1.00;;;;;;8325127;28;20193;-82
2023/10/02 13:41:29;;;;;;;6.97;4.00;;;26.60;1.00;;;;;;8325693;28;20470;-81
2023/10/02 13:45:30;;;;;;;6.38;3.95;;;26.60;1.00;;;;;;8323920;28;20194;-82
2023/10/02 13:49:31;;;;;;;6.70;4.35;;;26.50;1.00;;;;;;8325046;28;20224;-81
2023/10/02 13:53:33;;;;;;;6.30;3.53;;;26.40;1.00;;;;;;8321816;28;20178;-81
2023/10/02 13:57:33;;;;;;;8.73;4.80;;;26.40;1.00;;;;;;8324924;28;20194;-81
2023/10/02 14:01:34;;;;;;;9.05;4.32;;;26.30;1.00;;;;;;8324125;28;20251;-82
2023/10/02 14:05:36;;;;;;;7.60;3.65;;;26.00;1.00;;;;;;8341705;28;20182;-82
2023/10/02 14:09:39;;;;;;;7.28;3.80;;;25.80;1.00;;;;;;8342660;28;20198;-82
2023/10/02 14:13:47;;;;;;;5.60;3.63;;;25.70;1.00;;;;;;8323358;28;20188;-82
2023/10/02 14:17:51;;;;;;;5.03;3.03;;;25.70;1.00;;;;;;8324741;28;20251;-81
2023/10/02 14:21:52;;;;;;;6.60;3.70;;;25.70;1.00;;;;;;8325969;28;20227;-82
2023/10/02 14:26:01;;;;;;;6.85;4.22;;;25.60;1.00;;;;;;8321390;28;20312;-81
2023/10/02 14:30:02;;;;;;;8.77;3.85;;;25.60;1.00;;;;;;8316264;28;20203;-81
2023/10/02 14:34:06;;;;;;;5.57;2.83;;;25.50;1.00;;;;;;8324101;28;20182;-81
2023/10/02 14:38:08;;;;;;;5.55;3.80;;;25.40;1.00;;;;;;8320623;28;20193;-81
2023/10/02 14:42:11;;;;;;;6.80;3.50;;;25.30;1.00;;;;;;8339268;28;20190;-81
2023/10/02 14:46:11;;;;;;;5.55;3.75;;;25.20;1.00;;;;;;8327043;28;20193;-82
2023/10/02 14:50:16;;;;;;;7.10;3.38;;;25.20;1.00;;;;;;8326820;28;20213;-81
2023/10/02 14:54:17;;;;;;;5.25;3.25;;;25.10;1.00;;;;;;8326710;28;20260;-81
2023/10/02 14:58:18;;;;;;;5.18;3.38;;;25.10;1.00;;;;;;8329571;28;20190;-81
2023/10/02 15:02:19;;;;;;;4.80;3.40;;;25.10;1.00;;;;;;8329023;28;20198;-80
2023/10/02 15:06:19;;;;;;;5.20;3.30;;;25.00;1.00;;;;;;8325109;28;20200;-81
2023/10/02 15:10:23;;;;;;;9.20;3.88;;;25.00;1.00;;;;;;8347240;28;20213;-81
2023/10/02 15:14:26;;;;;;;7.22;3.15;;;25.00;1.00;;;;;;8345265;28;20182;-81
2023/10/02 15:18:27;;;;;;;6.07;3.58;;;24.90;1.00;;;;;;8326828;28;20218;-81
2023/10/02 15:22:32;;;;;;;8.05;3.50;;;24.80;1.00;;;;;;8347878;28;20202;-80
2023/10/02 15:26:33;;;;;;;6.80;4.05;;;24.60;1.00;;;;;;8328727;28;20182;-81
2023/10/02 15:30:35;;;;;;;6.50;4.10;;;24.50;1.00;;;;;;8331271;28;20213;-80
2023/10/02 15:34:35;;;;;;;5.03;3.50;;;24.30;1.00;;;;;;8345366;28;20204;-80
2023/10/02 15:38:37;;;;;;;5.73;3.57;;;24.10;1.00;;;;;;8328790;28;20189;-80
2023/10/02 15:42:43;;;;;;;5.30;3.60;;;23.90;1.00;;;;;;8326783;28;20313;-80
2023/10/02 15:46:50;;;;;;;5.27;3.70;;;23.60;1.00;;;;;;8345549;28;20544;-80
2023/10/02 15:50:53;;;;;;;5.83;3.57;;;23.40;1.00;;;;;;8328394;28;20260;-81
2023/10/02 15:55:00;;;;;;;5.40;3.23;;;23.10;1.00;;;;;;8327791;28;20240;-80
2023/10/02 15:59:05;;;;;;;4.47;3.30;;;22.90;1.00;;;;;;8324187;28;20200;-80
2023/10/02 16:03:07;;;;;;;10.03;3.27;;;22.60;1.00;;;;;;8326187;28;21118;-80
2023/10/02 16:07:08;;;;;;;15.70;3.90;;;22.40;1.00;;;;;;8328351;28;20174;-79
2023/10/02 16:11:09;;;;;;;7.27;3.40;;;22.10;1.00;;;;;;8326672;28;20361;-80
2023/10/02 16:15:12;;;;;;;5.10;3.17;;;21.80;1.00;;;;;;8326489;28;20185;-80
2023/10/02 16:19:13;;;;;;;5.87;3.10;;;21.50;1.00;;;;;;8325045;28;20253;-80
2023/10/02 16:23:17;;;;;;;6.00;3.40;;;21.10;1.00;;;;;;8328710;28;20299;-80
2023/10/02 16:27:19;;;;;;;6.03;3.70;;;20.80;1.00;;;;;;8325171;28;20214;-80
2023/10/02 16:31:30;;;;;;;7.10;3.80;;;20.50;1.00;;;;;;8343095;28;20209;-80
2023/10/02 16:35:30;;;;;;;5.50;3.33;;;20.20;1.00;;;;;;8323267;28;20178;-79
2023/10/02 16:39:32;;;;;;;5.67;3.60;;;19.90;1.00;;;;;;8323843;28;20189;-81
2023/10/02 16:43:32;;;;;;;6.13;3.77;;;19.60;1.00;;;;;;8327076;28;20181;-80
2023/10/02 16:47:33;;;;;;;5.93;4.10;;;19.30;1.00;;;;;;8327412;28;20244;-80
2023/10/02 16:51:35;;;;;;;6.17;4.13;;;19.00;1.00;;;;;;8328724;28;20194;-80
2023/10/02 16:55:36;;;;;;;7.60;4.40;;;18.80;1.00;;;;;;8324484;28;20514;-79
2023/10/02 16:59:36;;;;;;;6.03;4.03;;;18.60;1.00;;;;;;8341872;28;20258;-79
2023/10/02 17:03:37;;;;;;;5.90;4.10;;;18.40;1.00;;;;;;8322861;28;20189;-79
2023/10/02 17:07:40;;;;;;;6.50;3.97;;;18.30;1.00;;;;;;8324838;28;20201;-79
2023/10/02 17:11:41;;;;;;;6.30;4.30;;;18.10;1.00;;;;;;8338032;28;20172;-79
2023/10/02 17:15:44;;;;;;;7.13;4.17;;;17.90;1.00;;;;;;8320883;28;20178;-79
2023/10/02 17:19:45;;;;;;;5.40;3.77;;;17.70;1.00;;;;;;8340417;28;20186;-80
2023/10/02 17:23:46;;;;;;;5.67;3.63;;;17.50;1.00;;;;;;8324979;28;20189;-80
2023/10/02 17:27:46;;;;;;;7.63;4.03;;;17.40;1.00;;;;;;8340826;28;20232;-79
2023/10/02 17:31:49;;;;;;;5.47;3.90;;;17.30;1.00;;;;;;8339057;28;20453;-80
2023/10/02 17:35:50;;;;;;;7.10;3.83;;;17.10;1.00;;;;;;8325483;28;20290;-79
2023/10/02 17:39:51;;;;;;;5.93;3.90;;;17.00;1.00;;;;;;8320763;28;20177;-79
2023/10/02 17:43:53;;;;;;;6.77;4.17;;;16.80;1.00;;;;;;8319537;28;20423;-79
2023/10/02 17:47:54;;;;;;;5.93;3.90;;;16.70;1.00;;;;;;8319213;28;20213;-80
2023/10/02 17:51:56;;;;;;;6.70;3.90;;;16.60;1.00;;;;;;8323319;28;20311;-80
2023/10/02 17:55:57;;;;;;;6.40;4.10;;;16.50;1.00;;;;;;8320608;28;20344;-79
2023/10/02 18:00:00;;;;;;;7.23;4.17;;;16.40;1.00;;;;;;8338155;28;20224;-79
2023/10/02 18:04:00;;;;;;;8.07;4.70;;;16.30;1.00;;;;;;8336847;28;20528;-80
2023/10/02 18:08:05;;;;;;;6.60;4.27;;;16.10;1.00;;;;;;8323240;28;20202;-80
2023/10/02 18:12:09;;;;;;;5.23;4.10;;;16.00;1.00;;;;;;8339289;28;20269;-79
2023/10/02 18:16:18;;;;;;;5.20;3.73;;;15.90;1.00;;;;;;8318350;28;20178;-80
2023/10/02 18:20:19;;;;;;;5.80;4.17;;;15.80;1.00;;;;;;8326925;28;20275;-80
2023/10/02 18:24:20;;;;;;;7.60;4.33;;;15.80;1.00;;;;;;8328013;28;20224;-80
2023/10/02 18:28:21;;;;;;;6.53;4.30;;;15.70;1.00;;;;;;8345535;28;20213;-80
2023/10/02 18:32:22;;;;;;;6.07;4.17;;;15.60;1.00;;;;;;8325121;28;20185;-80
2023/10/02 18:36:23;;;;;;;5.20;3.70;;;15.50;1.00;;;;;;8326427;28;20185;-80
2023/10/02 18:40:24;;;;;;;6.70;4.50;;;15.40;2.20;;;;;;8325734;28;20255;-79
2023/10/02 18:44:25;;;;;;;5.13;3.87;;;15.40;5.40;;;;;;8328441;28;20190;-79
2023/10/02 18:48:26;;;;;;;7.10;4.43;;;15.40;8.90;;;;;;8326565;28;20216;-80
2023/10/02 18:52:27;;;;;;;6.30;4.80;;;15.30;10.80;;;;;;8324073;28;20437;-79
2023/10/02 18:56:30;;;;;;;8.23;4.90;;;15.30;11.70;;;;;;8326937;28;20273;-79
2023/10/02 19:00:31;;;;;;;8.13;4.87;;;15.30;14.40;;;;;;8327520;28;20194;-80
2023/10/02 19:04:33;;;;;;;7.40;4.33;;;15.20;14.20;;;;;;8323010;28;20266;-80
2023/10/02 19:08:35;;;;;;;7.93;4.97;;;15.20;17.90;;;;;;8329161;28;20286;-79
2023/10/02 19:12:37;;;;;;;7.97;5.10;;;15.20;24.20;;;;;;8343028;28;20393;-79
2023/10/02 19:16:38;;;;;;;7.07;4.63;;;15.10;29.90;;;;;;8327546;28;20189;-79
2023/10/02 19:20:40;;;;;;;10.40;7.63;;;15.10;34.00;;;;;;8344218;28;20205;-80
2023/10/02 19:24:41;;;;;;;9.50;6.30;;;15.10;71.60;;;;;;8327917;28;20301;-79
2023/10/02 19:28:42;;;;;;;12.13;6.50;;;15.10;40.30;;;;;;8324891;28;20519;-79
2023/10/02 19:32:43;;;;;;;14.93;9.10;;;15.10;36.10;;;;;;8326115;28;20220;-79
2023/10/02 19:36:44;;;;;;;23.27;14.50;;;15.10;33.80;;;;;;8325967;28;20178;-79
2023/10/02 19:40:45;;;;;;;20.83;13.10;;;15.20;34.00;;;;;;8329833;28;20378;-80
2023/10/02 19:44:46;;;;;;;21.80;12.93;;;15.20;32.00;;;;;;8331951;28;20583;-79
2023/10/02 19:48:49;;;;;;;18.40;12.07;;;15.20;27.30;;;;;;8327788;28;20297;-80
2023/10/02 19:52:50;;;;;;;15.77;9.37;;;15.20;27.40;;;;;;8328558;28;20178;-79
2023/10/02 19:56:52;;;;;;;13.07;8.50;;;15.20;27.00;;;;;;8327119;28;20252;-79
2023/10/02 20:00:54;;;;;;;11.77;7.03;;;15.30;24.70;;;;;;8345750;28;20226;-79
2023/10/02 20:04:56;;;;;;;11.27;7.20;;;15.30;20.10;;;;;;8327753;28;20189;-79
2023/10/02 20:08:57;;;;;;;10.47;6.83;;;15.30;16.50;;;;;;8343253;28;20494;-79
2023/10/02 20:12:59;;;;;;;12.57;7.33;;;15.30;17.00;;;;;;8327511;28;20231;-79
2023/10/02 20:17:01;;;;;;;13.43;8.37;;;15.30;18.90;;;;;;8321749;28;20186;-79
2023/10/02 20:21:04;;;;;;;12.80;7.73;;;15.20;20.10;;;;;;8321742;28;20198;-79
2023/10/02 20:25:07;;;;;;;13.17;8.80;;;15.20;19.00;;;;;;8326870;28;20370;-80
2023/10/02 20:29:09;;;;;;;13.60;9.13;;;15.10;20.20;;;;;;8343074;28;20212;-79
2023/10/02 20:33:10;;;;;;;12.60;8.90;;;15.00;23.10;;;;;;8346090;28;20178;-79
2023/10/02 20:37:11;;;;;;;9.70;6.63;;;15.00;27.30;;;;;;8327248;28;20292;-79
2023/10/02 20:41:13;;;;;;;10.23;6.73;;;15.00;28.30;;;;;;8343890;28;20186;-80
2023/10/02 20:45:14;;;;;;;10.27;6.60;;;15.00;22.80;;;;;;8327943;28;20182;-81
2023/10/02 20:49:16;;;;;;;13.73;6.60;;;15.00;20.80;;;;;;8342227;28;20290;-79
2023/10/02 20:53:17;;;;;;;9.53;5.77;;;15.00;28.40;;;;;;8344186;28;20209;-79
2023/10/02 20:57:18;;;;;;;13.23;6.73;;;15.00;40.20;;;;;;8324914;28;20192;-79
2023/10/02 21:01:19;;;;;;;8.93;6.00;;;14.90;48.50;;;;;;8326781;28;20186;-80
2023/10/02 21:05:19;;;;;;;9.77;6.37;;;14.80;53.50;;;;;;8344848;28;20189;-79
2023/10/02 21:09:22;;;;;;;8.57;5.53;;;14.80;65.10;;;;;;8326385;28;20217;-79
2023/10/02 21:13:24;;;;;;;9.97;5.90;;;14.70;82.40;;;;;;8325273;28;20193;-79
2023/10/02 21:17:25;;;;;;;11.47;6.93;;;14.60;95.00;;;;;;8345388;28;20483;-80
2023/10/02 21:21:26;;;;;;;9.97;6.83;;;14.50;99.90;;;;;;8326284;28;20213;-80
2023/10/02 21:25:27;;;;;;;9.07;6.33;;;14.40;99.90;;;;;;8342210;28;20181;-79
2023/10/02 21:29:28;;;;;;;11.37;6.93;;;14.30;99.90;;;;;;8340210;28;20209;-80
2023/10/02 21:33:31;;;;;;;12.73;7.13;;;14.20;99.90;;;;;;8344239;28;20245;-78
2023/10/02 21:37:32;;;;;;;11.13;6.57;;;14.20;99.90;;;;;;8331454;28;20193;-79
2023/10/02 21:41:34;;;;;;;12.60;6.90;;;14.20;99.90;;;;;;8326307;28;20236;-79
2023/10/02 21:45:35;;;;;;;9.33;5.97;;;14.20;99.90;;;;;;8324632;28;20196;-78
2023/10/02 21:49:36;;;;;;;10.80;6.13;;;14.10;99.90;;;;;;8327782;28;20220;-80
2023/10/02 21:53:39;;;;;;;11.17;6.93;;;14.10;99.90;;;;;;8348547;28;20352;-79
2023/10/02 21:57:41;;;;;;;9.50;6.20;;;14.00;99.90;;;;;;8337282;28;20458;-79
2023/10/02 22:01:41;;;;;;;9.53;6.03;;;13.90;99.90;;;;;;8335483;28;20197;-79